Aviation Digital Data Service (ADDS)

Output produced by METARs form (2326 UTC 15 February 2019)
found at http://www.aviationweather.gov/metar/data/
 
METAR text: DRZA 151800Z 10016KT CAVOK 21/M05 Q1020
Conditions at: DRZA (AGADEZ SOUTH (MI, NE) observed 1800 UTC 15 February 2019
Temperature: 21.0°C (70°F)
Dewpoint: -5.0°C (23°F) [RH = 17%]
Pressure (altimeter): 30.12 inches Hg (1020.0 mb)
Winds: from the E (100 degrees) at 18 MPH (16 knots; 8.2 m/s)
Visibility: 6 or more miles (10+ km)
Ceiling: ceiling and visibility are OK
Clouds: unknown
Weather: no significant weather observed at this time

METAR text: DRZA 151700Z 10024KT CAVOK 23/M02 Q1019
Conditions at: DRZA (AGADEZ SOUTH (MI, NE) observed 1700 UTC 15 February 2019
Temperature: 23.0°C (73°F)
Dewpoint: -2.0°C (28°F) [RH = 19%]
Pressure (altimeter): 30.09 inches Hg (1019.0 mb)
Winds: from the E (100 degrees) at 28 MPH (24 knots; 12.3 m/s)
Visibility: 6 or more miles (10+ km)
Ceiling: ceiling and visibility are OK
Clouds: unknown
Weather: no significant weather observed at this time

METAR text: DRZA 151600Z 10022KT 8000 NSC 25/M05 Q1019
Conditions at: DRZA (AGADEZ SOUTH (MI, NE) observed 1600 UTC 15 February 2019
Temperature: 25.0°C (77°F)
Dewpoint: -5.0°C (23°F) [RH = 13%]
Pressure (altimeter): 30.09 inches Hg (1019.0 mb)
Winds: from the E (100 degrees) at 25 MPH (22 knots; 11.3 m/s)
Visibility: 5 miles ( 8 km)
Ceiling: at least 12,000 feet AGL
Clouds: sky clear below 12,000 feet AGL
Weather: no significant weather observed at this time

METAR text: DRZA 151500Z 10022KT 8000 NSC 26/M04 Q1019
Conditions at: DRZA (AGADEZ SOUTH (MI, NE) observed 1500 UTC 15 February 2019
Temperature: 26.0°C (79°F)
Dewpoint: -4.0°C (25°F) [RH = 14%]
Pressure (altimeter): 30.09 inches Hg (1019.0 mb)
Winds: from the E (100 degrees) at 25 MPH (22 knots; 11.3 m/s)
Visibility: 5 miles ( 8 km)
Ceiling: at least 12,000 feet AGL
Clouds: sky clear below 12,000 feet AGL
Weather: no significant weather observed at this time

METAR text: DRZA 151400Z 12020KT CAVOK 26/M07 Q1020
Conditions at: DRZA (AGADEZ SOUTH (MI, NE) observed 1400 UTC 15 February 2019
Temperature: 26.0°C (79°F)
Dewpoint: -7.0°C (19°F) [RH = 11%]
Pressure (altimeter): 30.12 inches Hg (1020.0 mb)
Winds: from the ESE (120 degrees) at 23 MPH (20 knots; 10.3 m/s)
Visibility: 6 or more miles (10+ km)
Ceiling: ceiling and visibility are OK
Clouds: unknown
Weather: no significant weather observed at this time

METAR text: DRZA 151300Z 10016KT CAVOK 25/M05 Q1021
Conditions at: DRZA (AGADEZ SOUTH (MI, NE) observed 1300 UTC 15 February 2019
Temperature: 25.0°C (77°F)
Dewpoint: -5.0°C (23°F) [RH = 13%]
Pressure (altimeter): 30.15 inches Hg (1021.0 mb)
Winds: from the E (100 degrees) at 18 MPH (16 knots; 8.2 m/s)
Visibility: 6 or more miles (10+ km)
Ceiling: ceiling and visibility are OK
Clouds: unknown
Weather: no significant weather observed at this time

METAR text: DRZA 151100Z 10018KT 8000 NSC 23/M05 Q1023
Conditions at: DRZA (AGADEZ SOUTH (MI, NE) observed 1100 UTC 15 February 2019
Temperature: 23.0°C (73°F)
Dewpoint: -5.0°C (23°F) [RH = 15%]
Pressure (altimeter): 30.21 inches Hg (1023.0 mb)
Winds: from the E (100 degrees) at 21 MPH (18 knots; 9.3 m/s)
Visibility: 5 miles ( 8 km)
Ceiling: at least 12,000 feet AGL
Clouds: sky clear below 12,000 feet AGL
Weather: no significant weather observed at this time

METAR text: DRZA 151000Z 10020KT 8000 NSC 22/M05 Q1023
Conditions at: DRZA (AGADEZ SOUTH (MI, NE) observed 1000 UTC 15 February 2019
Temperature: 22.0°C (72°F)
Dewpoint: -5.0°C (23°F) [RH = 16%]
Pressure (altimeter): 30.21 inches Hg (1023.0 mb)
Winds: from the E (100 degrees) at 23 MPH (20 knots; 10.3 m/s)
Visibility: 5 miles ( 8 km)
Ceiling: at least 12,000 feet AGL
Clouds: sky clear below 12,000 feet AGL
Weather: no significant weather observed at this time

METAR text: DRZA 150900Z 10016KT CAVOK 20/M04 Q1023
Conditions at: DRZA (AGADEZ SOUTH (MI, NE) observed 0900 UTC 15 February 2019
Temperature: 20.0°C (68°F)
Dewpoint: -4.0°C (25°F) [RH = 19%]
Pressure (altimeter): 30.21 inches Hg (1023.0 mb)
Winds: from the E (100 degrees) at 18 MPH (16 knots; 8.2 m/s)
Visibility: 6 or more miles (10+ km)
Ceiling: ceiling and visibility are OK
Clouds: unknown
Weather: no significant weather observed at this time

METAR text: DRZA 150800Z 10016KT CAVOK 17/M04 Q1022
Conditions at: DRZA (AGADEZ SOUTH (MI, NE) observed 0800 UTC 15 February 2019
Temperature: 17.0°C (63°F)
Dewpoint: -4.0°C (25°F) [RH = 23%]
Pressure (altimeter): 30.18 inches Hg (1022.0 mb)
Winds: from the E (100 degrees) at 18 MPH (16 knots; 8.2 m/s)
Visibility: 6 or more miles (10+ km)
Ceiling: ceiling and visibility are OK
Clouds: unknown
Weather: no significant weather observed at this time

METAR text: DRZA 150700Z 10018KT CAVOK 15/M02 Q1022
Conditions at: DRZA (AGADEZ SOUTH (MI, NE) observed 0700 UTC 15 February 2019
Temperature: 15.0°C (59°F)
Dewpoint: -2.0°C (28°F) [RH = 31%]
Pressure (altimeter): 30.18 inches Hg (1022.0 mb)
Winds: from the E (100 degrees) at 21 MPH (18 knots; 9.3 m/s)
Visibility: 6 or more miles (10+ km)
Ceiling: ceiling and visibility are OK
Clouds: unknown
Weather: no significant weather observed at this time

METAR text: DRZA 150600Z 10018KT CAVOK 13/M01 Q1022
Conditions at: DRZA (AGADEZ SOUTH (MI, NE) observed 0600 UTC 15 February 2019
Temperature: 13.0°C (55°F)
Dewpoint: -1.0°C (30°F) [RH = 38%]
Pressure (altimeter): 30.18 inches Hg (1022.0 mb)
Winds: from the E (100 degrees) at 21 MPH (18 knots; 9.3 m/s)
Visibility: 6 or more miles (10+ km)
Ceiling: ceiling and visibility are OK
Clouds: unknown
Weather: no significant weather observed at this time

METAR text: DRZA 150500Z 10018KT 8000 NSC 14/M02 Q1021
Conditions at: DRZA (AGADEZ SOUTH (MI, NE) observed 0500 UTC 15 February 2019
Temperature: 14.0°C (57°F)
Dewpoint: -2.0°C (28°F) [RH = 33%]
Pressure (altimeter): 30.15 inches Hg (1021.0 mb)
Winds: from the E (100 degrees) at 21 MPH (18 knots; 9.3 m/s)
Visibility: 5 miles ( 8 km)
Ceiling: at least 12,000 feet AGL
Clouds: sky clear below 12,000 feet AGL
Weather: no significant weather observed at this time

METAR text: DRZA 141800Z 13022KT 3000 BLDU NSC 20/M11 Q1019
Conditions at: DRZA (AGADEZ SOUTH (MI, NE) observed 1800 UTC 14 February 2019
Temperature: 20.0°C (68°F)
Dewpoint: -11.0°C (12°F) [RH = 11%]
Pressure (altimeter): 30.09 inches Hg (1019.0 mb)
Winds: from the SE (130 degrees) at 25 MPH (22 knots; 11.3 m/s)
Visibility: 1.86 miles (2.99 km)
Ceiling: at least 12,000 feet AGL
Clouds: sky clear below 12,000 feet AGL
Weather: BLDU  (blowing dust)

METAR text: DRZA 141700Z 10022KT CAVOK 24/M11 Q1019
Conditions at: DRZA (AGADEZ SOUTH (MI, NE) observed 1700 UTC 14 February 2019
Temperature: 24.0°C (75°F)
Dewpoint: -11.0°C (12°F) [RH =  9%]
Pressure (altimeter): 30.09 inches Hg (1019.0 mb)
Winds: from the E (100 degrees) at 25 MPH (22 knots; 11.3 m/s)
Visibility: 6 or more miles (10+ km)
Ceiling: ceiling and visibility are OK
Clouds: unknown
Weather: no significant weather observed at this time

METAR text: DRZA 141600Z 10023KT CAVOK 26/M11 Q1019
Conditions at: DRZA (AGADEZ SOUTH (MI, NE) observed 1600 UTC 14 February 2019
Temperature: 26.0°C (79°F)
Dewpoint: -11.0°C (12°F) [RH =  8%]
Pressure (altimeter): 30.09 inches Hg (1019.0 mb)
Winds: from the E (100 degrees) at 26 MPH (23 knots; 11.8 m/s)
Visibility: 6 or more miles (10+ km)
Ceiling: ceiling and visibility are OK
Clouds: unknown
Weather: no significant weather observed at this time

METAR text: DRZA 141500Z 09022KT CAVOK 27/M11 Q1019
Conditions at: DRZA (AGADEZ SOUTH (MI, NE) observed 1500 UTC 14 February 2019
Temperature: 27.0°C (81°F)
Dewpoint: -11.0°C (12°F) [RH =  7%]
Pressure (altimeter): 30.09 inches Hg (1019.0 mb)
Winds: from the E (90 degrees) at 25 MPH (22 knots; 11.3 m/s)
Visibility: 6 or more miles (10+ km)
Ceiling: ceiling and visibility are OK
Clouds: unknown
Weather: no significant weather observed at this time

METAR text: DRZA 141400Z 10021KT CAVOK 27/M13 Q1019
Conditions at: DRZA (AGADEZ SOUTH (MI, NE) observed 1400 UTC 14 February 2019
Temperature: 27.0°C (81°F)
Dewpoint: -13.0°C ( 9°F) [RH =  6%]
Pressure (altimeter): 30.09 inches Hg (1019.0 mb)
Winds: from the E (100 degrees) at 24 MPH (21 knots; 10.8 m/s)
Visibility: 6 or more miles (10+ km)
Ceiling: ceiling and visibility are OK
Clouds: unknown
Weather: no significant weather observed at this time

METAR text: DRZA 141300Z 12020KT 8000 NSC 27/M06 Q1020
Conditions at: DRZA (AGADEZ SOUTH (MI, NE) observed 1300 UTC 14 February 2019
Temperature: 27.0°C (81°F)
Dewpoint: -6.0°C (21°F) [RH = 11%]
Pressure (altimeter): 30.12 inches Hg (1020.0 mb)
Winds: from the ESE (120 degrees) at 23 MPH (20 knots; 10.3 m/s)
Visibility: 5 miles ( 8 km)
Ceiling: at least 12,000 feet AGL
Clouds: sky clear below 12,000 feet AGL
Weather: no significant weather observed at this time

METAR text: DRZA 141200Z 12018KT 6000 NSC 26/M08 Q1021
Conditions at: DRZA (AGADEZ SOUTH (MI, NE) observed 1200 UTC 14 February 2019
Temperature: 26.0°C (79°F)
Dewpoint: -8.0°C (18°F) [RH = 10%]
Pressure (altimeter): 30.15 inches Hg (1021.0 mb)
Winds: from the ESE (120 degrees) at 21 MPH (18 knots; 9.3 m/s)
Visibility: 4 miles ( 6 km)
Ceiling: at least 12,000 feet AGL
Clouds: sky clear below 12,000 feet AGL
Weather: no significant weather observed at this time

Forecast for: DRZA (AGADEZ SOUTH (MI, NE)
Text: TAF DRZA 152300Z 1600/1624 10015KT 8000 NSC
Forecast period: 0000 to 1600 UTC 16 February 2019
Forecast type: FROM: standard forecast or significant change
Winds: from the E (100 degrees) at 17 MPH (15 knots; 7.7 m/s)
Visibility: 5 miles (8 km)
Ceiling: unknown
Clouds: missing
Weather: no significant weather forecast for this period
Text: TEMPO 1608/1616 10025KT 0800 BLDU
Forecast period: 0800 to 1600 UTC 16 February 2019
Forecast type: TEMPORARY: The following changes expected for less than half the time period
Winds: from the E (100 degrees) at 29 MPH (25 knots; 12.9 m/s)
Visibility: 0.50 miles (0.80 km)
Ceiling: unknown
Clouds: missing
Weather: BLDU  (blowing dust)
Text: BECMG 1616/1618 4000 DU
Forecast period: 1600 UTC 16 February 2019 to 0000 UTC 17 February 2019
Forecast type: BECOMING: Conditions expected to become as follows by 1800 UTC 16 February 2019
Winds: from the E (100 degrees) at 17 MPH (15 knots; 7.7 m/s)
Visibility: 2.49 miles (4.01 km)
Ceiling: unknown
Clouds: missing
Weather: DU  (widespread dust)